Time;durP1;ratioP1;P1;durP2;ratioP2;P2;SDS_P1;SDS_P2;PMS_P1;PMS_P2;Temp;Humidity;BMP_temperature;BMP_pressure;BME280_temperature;BME280_humidity;BME280_pressure;Samples;Min_cycle;Max_cycle;Signal;HPM_P1;HPM_P2
2021/08/01 00:02:25;;;;;;;;;;;;;;;30.10;37.60;99551.50;4404347;32;34872;-88
2021/08/01 00:04:52;;;;;;;;;;;;;;;30.28;37.25;99554.72;4417566;32;34346;-89
2021/08/01 00:07:20;;;;;;;;;;;;;;;30.53;36.66;99556.38;4392094;32;34471;-89
2021/08/01 00:09:47;;;;;;;;;;;;;;;30.18;37.34;99543.37;4392102;32;33869;-89
2021/08/01 00:12:17;;;;;;;;;;;;;;;29.31;39.07;99545.19;4404951;32;34817;-89
2021/08/01 00:14:44;;;;;;;;;;;;;;;29.18;39.39;99544.06;4404763;32;35018;-89
2021/08/01 00:17:12;;;;;;;;;;;;;;;29.45;38.87;99540.97;4404623;32;34845;-89
2021/08/01 00:19:40;;;;;;;;;;;;;;;29.01;39.79;99544.09;4404766;32;33464;-89
2021/08/01 00:22:07;;;;;;;;;;;;;;;29.60;38.45;99543.72;4375769;32;923232;-89
2021/08/01 00:24:35;;;;;;;;;;;;;;;29.63;38.36;99538.00;4392212;32;35021;-89
2021/08/01 00:27:04;;;;;;;;;;;;;;;29.35;39.17;99536.81;4404179;32;35178;-89
2021/08/01 00:29:31;;;;;;;;;;;;;;;29.05;39.89;99532.03;4417161;32;32659;-89
2021/08/01 00:31:59;;;;;;;;;;;;;;;29.07;39.98;99538.06;4404327;32;34436;-89
2021/08/01 00:34:27;;;;;;;;;;;;;;;27.98;42.33;99542.78;4417094;32;34517;-89
2021/08/01 00:36:56;;;;;;;;;;;;;;;28.74;40.62;99545.34;4404404;32;33973;-89
2021/08/01 00:39:24;;;;;;;;;;;;;;;28.63;40.69;99543.81;4404789;32;34278;-89
2021/08/01 00:41:51;;;;;;;;;;;;;;;29.05;39.54;99542.78;4404194;32;34185;-89
2021/08/01 00:44:19;;;;;;;;;;;;;;;29.33;39.04;99528.91;4404051;32;35987;-89
2021/08/01 00:46:47;;;;;;;;;;;;;;;29.22;39.25;99521.25;4404273;32;33777;-89
2021/08/01 00:49:14;;;;;;;;;;;;;;;29.24;39.30;99516.56;4404173;32;33667;-89
2021/08/01 00:51:42;;;;;;;;;;;;;;;30.02;37.65;99514.78;4404756;32;34404;-89
2021/08/01 00:54:11;;;;;;;;;;;;;;;30.12;37.47;99514.56;4417313;32;33899;-89
2021/08/01 00:56:39;;;;;;;;;;;;;;;30.42;36.79;99512.78;4417157;32;34711;-89
2021/08/01 00:59:06;;;;;;;;;;;;;;;30.21;37.12;99518.00;4392577;32;33882;-89
2021/08/01 01:01:57;;;;;;;;;;;;;;;28.76;40.30;99522.72;4404630;32;34998;-89
2021/08/01 01:04:28;;;;;;;;;;;;;;;28.97;39.96;99535.56;4391553;32;33445;-89
2021/08/01 01:06:59;;;;;;;;;;;;;;;28.74;40.50;99575.66;4404355;32;34830;-88
2021/08/01 01:09:36;;;;;;;;;;;;;;;27.83;42.87;99628.25;4404284;32;34820;-89
2021/08/01 01:12:05;;;;;;;;;;;;;;;26.82;44.55;99657.22;4379199;32;34854;-89
2021/08/01 01:14:35;;;;;;;;;;;;;;;28.26;41.17;99655.81;4391206;32;34903;-89
2021/08/01 01:17:04;;;;;;;;;;;;;;;28.20;41.23;99647.62;4404333;32;35261;-89
2021/08/01 01:19:46;;;;;;;;;;;;;;;28.81;39.88;99675.00;4404479;32;34205;-89
2021/08/01 01:22:15;;;;;;;;;;;;;;;27.11;43.79;99701.56;4404035;32;35035;-89
2021/08/01 01:24:44;;;;;;;;;;;;;;;27.50;43.29;99724.44;4403870;32;36502;-89
2021/08/01 01:27:23;;;;;;;;;;;;;;;28.09;41.93;99746.00;4404198;32;34297;-89
2021/08/01 01:30:02;;;;;;;;;;;;;;;28.00;43.20;99731.72;4390769;32;33541;-90
2021/08/01 01:32:33;;;;;;;;;;;;;;;28.48;46.38;99701.78;4403468;32;34892;-90
2021/08/01 01:35:07;;;;;;;;;;;;;;;28.78;46.78;99691.44;4405539;32;33755;-89
2021/08/01 01:37:36;;;;;;;;;;;;;;;29.07;46.09;99690.09;4402886;32;34461;-90
2021/08/01 01:40:05;;;;;;;;;;;;;;;29.65;44.41;99659.47;4404377;32;32720;-89
2021/08/01 01:42:32;;;;;;;;;;;;;;;29.43;44.97;99636.88;4416045;32;35667;-89
2021/08/01 01:45:02;;;;;;;;;;;;;;;29.23;45.73;99620.31;4391402;32;35918;-89
2021/08/01 01:47:31;;;;;;;;;;;;;;;29.22;45.98;99623.16;4416169;32;34202;-89
2021/08/01 01:49:59;;;;;;;;;;;;;;;28.48;48.21;99622.22;4416788;32;33395;-89
2021/08/01 01:52:28;;;;;;;;;;;;;;;28.95;46.82;99611.84;4416381;32;33878;-89
2021/08/01 01:54:57;;;;;;;;;;;;;;;29.41;46.45;99613.91;4403658;32;35441;-89
2021/08/01 01:57:26;;;;;;;;;;;;;;;29.46;46.70;99608.88;4403317;32;34408;-89
2021/08/01 01:59:55;;;;;;;;;;;;;;;29.71;46.41;99611.47;4403622;32;33811;-89
2021/08/01 02:02:22;;;;;;;;;;;;;;;29.81;45.34;99610.22;4403707;32;35591;-89
2021/08/01 02:04:51;;;;;;;;;;;;;;;29.94;44.80;99611.53;4416271;32;35043;-89
2021/08/01 02:07:21;;;;;;;;;;;;;;;29.78;45.85;99599.00;4403112;32;36181;-89
2021/08/01 02:09:51;;;;;;;;;;;;;;;28.96;47.17;99578.66;4402920;32;34889;-89
2021/08/01 02:12:38;;;;;;;;;;;;;;;29.26;46.91;99570.88;4403857;32;35166;-89
2021/08/01 02:15:11;;;;;;;;;;;;;;;29.33;46.21;99566.47;4405087;32;34974;-88
2021/08/01 02:17:40;;;;;;;;;;;;;;;29.20;46.44;99552.75;4403477;32;33814;-89
2021/08/01 02:20:08;;;;;;;;;;;;;;;28.80;46.93;99523.22;4403371;32;33945;-89
2021/08/01 02:22:37;;;;;;;;;;;;;;;29.68;45.07;99501.72;4403467;32;34770;-90
2021/08/01 02:25:06;;;;;;;;;;;;;;;29.02;47.09;99502.03;4403657;32;35102;-89
2021/08/01 02:27:34;;;;;;;;;;;;;;;29.23;46.83;99509.50;4416280;32;34257;-89
2021/08/01 02:30:02;;;;;;;;;;;;;;;29.51;46.87;99509.91;4403453;32;34095;-89
2021/08/01 02:32:32;;;;;;;;;;;;;;;29.10;47.17;99507.38;4415540;32;35450;-89
2021/08/01 02:35:02;;;;;;;;;;;;;;;29.37;45.69;99505.28;4390694;32;35304;-90
2021/08/01 02:37:30;;;;;;;;;;;;;;;28.29;49.16;99494.81;4404153;32;34553;-90
2021/08/01 02:39:58;;;;;;;;;;;;;;;27.75;50.45;99508.63;4403712;32;33838;-89
2021/08/01 02:42:29;;;;;;;;;;;;;;;27.44;51.70;99506.53;4403612;32;33446;-89
2021/08/01 02:44:57;;;;;;;;;;;;;;;26.60;54.90;99511.56;4403552;32;34299;-89
2021/08/01 02:47:25;;;;;;;;;;;;;;;27.04;53.93;99504.50;4403036;32;32440;-89
2021/08/01 02:49:53;;;;;;;;;;;;;;;27.83;51.45;99494.41;4404615;32;32398;-89
2021/08/01 02:52:26;;;;;;;;;;;;;;;27.43;53.13;99479.94;4405648;32;33612;-89
2021/08/01 02:54:54;;;;;;;;;;;;;;;27.55;52.90;99475.97;4405219;32;34818;-90
2021/08/01 02:57:22;;;;;;;;;;;;;;;27.45;52.91;99485.97;4392314;32;33866;-89
2021/08/01 02:59:50;;;;;;;;;;;;;;;27.89;51.63;99477.69;4417785;32;33575;-89
2021/08/01 03:02:18;;;;;;;;;;;;;;;27.55;52.52;99465.28;4392566;32;32922;-89
2021/08/01 03:04:47;;;;;;;;;;;;;;;27.79;52.35;99463.62;4405301;32;34276;-89
2021/08/01 03:07:15;;;;;;;;;;;;;;;27.54;52.72;99463.59;4417937;32;33094;-89
2021/08/01 03:09:43;;;;;;;;;;;;;;;27.57;52.44;99465.09;4392512;32;32161;-89
2021/08/01 03:12:14;;;;;;;;;;;;;;;27.33;53.03;99475.53;4405297;32;33950;-89
2021/08/01 03:14:42;;;;;;;;;;;;;;;27.46;52.61;99476.94;4417879;32;34077;-89
2021/08/01 03:17:10;;;;;;;;;;;;;;;27.05;53.61;99490.16;4405508;32;34860;-89
2021/08/01 03:19:39;;;;;;;;;;;;;;;27.62;52.05;99484.19;4405162;32;32249;-89
2021/08/01 03:22:08;;;;;;;;;;;;;;;27.24;52.85;99495.22;4417282;32;33109;-89
2021/08/01 03:24:37;;;;;;;;;;;;;;;27.39;52.90;99491.97;4392375;32;33121;-90
2021/08/01 03:27:05;;;;;;;;;;;;;;;27.31;53.23;99501.62;4417812;32;34264;-89
2021/08/01 03:29:33;;;;;;;;;;;;;;;27.50;52.99;99494.34;4417700;32;34031;-89
2021/08/01 03:32:02;;;;;;;;;;;;;;;27.75;52.28;99489.03;4405137;32;33842;-89
2021/08/01 03:34:31;;;;;;;;;;;;;;;28.39;50.74;99494.62;4405122;32;34946;-89
2021/08/01 03:36:59;;;;;;;;;;;;;;;27.95;50.90;99493.09;4392225;32;33036;-89
2021/08/01 03:39:33;;;;;;;;;;;;;;;27.11;54.32;99486.81;4405442;32;33511;-89
2021/08/01 03:42:02;;;;;;;;;;;;;;;27.18;53.82;99477.16;4404540;32;33346;-89
2021/08/01 03:44:30;;;;;;;;;;;;;;;27.45;52.59;99457.38;4417390;32;33352;-89
2021/08/01 03:46:58;;;;;;;;;;;;;;;27.23;53.98;99466.81;4417364;32;33229;-89
2021/08/01 03:49:26;;;;;;;;;;;;;;;27.23;54.27;99476.66;4404699;32;32462;-89
2021/08/01 03:51:53;;;;;;;;;;;;;;;27.99;52.14;99473.00;4404857;32;32962;-89
2021/08/01 03:54:20;;;;;;;;;;;;;;;27.56;53.53;99484.81;4404540;32;33684;-89
2021/08/01 03:56:48;;;;;;;;;;;;;;;27.78;52.49;99486.03;4417813;32;34594;-89
2021/08/01 03:59:15;;;;;;;;;;;;;;;28.77;49.55;99512.81;4404512;32;33956;-89
2021/08/01 04:01:42;;;;;;;;;;;;;;;28.53;50.06;99527.91;4391734;32;34059;-89
2021/08/01 04:04:11;;;;;;;;;;;;;;;28.69;49.77;99507.50;4392829;32;34274;-89
2021/08/01 04:06:38;;;;;;;;;;;;;;;28.62;49.77;99470.62;4404774;32;33311;-89
2021/08/01 04:09:06;;;;;;;;;;;;;;;28.55;49.59;99469.63;4404453;32;33607;-89
2021/08/01 04:11:33;;;;;;;;;;;;;;;28.79;48.18;99513.50;4404311;32;33208;-90
2021/08/01 04:14:01;;;;;;;;;;;;;;;27.79;51.11;99514.50;4404980;32;33677;-89
2021/08/01 04:16:29;;;;;;;;;;;;;;;26.83;53.95;99479.84;4417322;32;34719;-89
2021/08/01 04:18:58;;;;;;;;;;;;;;;26.76;55.69;99467.28;4405167;32;33552;-89
2021/08/01 04:21:25;;;;;;;;;;;;;;;26.89;56.04;99454.31;4405412;32;35424;-89
2021/08/01 04:23:52;;;;;;;;;;;;;;;27.49;53.73;99448.00;4404810;32;35308;-89
2021/08/01 04:26:20;;;;;;;;;;;;;;;27.40;53.18;99440.16;4404643;32;34236;-89
2021/08/01 04:28:48;;;;;;;;;;;;;;;27.63;52.79;99430.50;4404532;32;33485;-89
2021/08/01 04:31:15;;;;;;;;;;;;;;;27.71;52.57;99412.75;4392126;32;34542;-90
2021/08/01 04:33:44;;;;;;;;;;;;;;;27.09;54.65;99388.06;4392125;32;34968;-89
2021/08/01 04:36:16;;;;;;;;;;;;;;;27.72;52.88;99369.78;4404532;32;34632;-89
2021/08/01 04:38:44;;;;;;;;;;;;;;;28.15;51.84;99365.06;4417153;32;34209;-89
2021/08/01 04:41:11;;;;;;;;;;;;;;;28.46;50.85;99363.50;4404749;32;35995;-89
2021/08/01 04:43:38;;;;;;;;;;;;;;;28.11;51.55;99341.50;4392026;32;34773;-89
2021/08/01 04:46:10;;;;;;;;;;;;;;;28.12;52.11;99333.28;4417069;32;35021;-89
2021/08/01 04:48:38;;;;;;;;;;;;;;;28.64;50.37;99352.56;4404230;32;33761;-89
2021/08/01 04:51:05;;;;;;;;;;;;;;;28.27;51.36;99362.06;4417253;32;35159;-89
2021/08/01 04:53:33;;;;;;;;;;;;;;;28.24;51.37;99365.91;4404760;32;34920;-90
2021/08/01 04:56:00;;;;;;;;;;;;;;;27.94;52.16;99378.97;4391851;32;35575;-89
2021/08/01 04:58:29;;;;;;;;;;;;;;;27.92;51.80;99397.06;4391490;32;33650;-89
2021/08/01 05:00:58;;;;;;;;;;;;;;;28.25;51.57;99393.50;4391869;32;34598;-89
2021/08/01 05:03:26;;;;;;;;;;;;;;;27.66;53.10;99390.00;4404240;32;34941;-89
2021/08/01 05:05:53;;;;;;;;;;;;;;;28.44;51.56;99419.94;4391707;32;35933;-89
2021/08/01 05:08:20;;;;;;;;;;;;;;;28.17;52.35;99426.50;4391462;32;33417;-89
2021/08/01 05:10:48;;;;;;;;;;;;;;;28.56;50.72;99417.72;4404445;32;34785;-89
2021/08/01 05:13:15;;;;;;;;;;;;;;;28.50;51.55;99400.47;4403466;32;35764;-89
2021/08/01 05:15:44;;;;;;;;;;;;;;;28.27;52.24;99397.69;4404314;32;34384;-89
2021/08/01 05:18:11;;;;;;;;;;;;;;;28.27;52.64;99400.38;4391563;32;33516;-89
2021/08/01 05:20:42;;;;;;;;;;;;;;;28.35;52.58;99374.56;4417073;32;34928;-89
2021/08/01 05:23:10;;;;;;;;;;;;;;;28.64;51.62;99385.56;4404156;32;33760;-90
2021/08/01 05:25:37;;;;;;;;;;;;;;;28.44;51.33;99371.72;4403958;32;34444;-89
2021/08/01 05:28:05;;;;;;;;;;;;;;;28.74;50.68;99368.44;4391232;32;33991;-89
2021/08/01 05:30:32;;;;;;;;;;;;;;;28.44;51.29;99357.47;4403383;32;35728;-89
2021/08/01 05:33:06;;;;;;;;;;;;;;;28.30;51.55;99359.03;4404550;32;34395;-89
2021/08/01 05:35:38;;;;;;;;;;;;;;;28.90;50.42;99354.94;4391535;32;35834;-89
2021/08/01 05:38:06;;;;;;;;;;;;;;;29.28;49.04;99357.78;4416278;32;34053;-89
2021/08/01 05:40:33;;;;;;;;;;;;;;;29.14;50.00;99355.81;4403681;32;34795;-89
2021/08/01 05:43:01;;;;;;;;;;;;;;;29.52;49.01;99361.28;4416415;32;34868;-89
2021/08/01 05:45:29;;;;;;;;;;;;;;;29.75;48.60;99366.63;4404077;32;33307;-89
2021/08/01 05:47:56;;;;;;;;;;;;;;;29.49;49.08;99372.41;4415912;32;34811;-89
2021/08/01 05:50:24;;;;;;;;;;;;;;;29.31;49.40;99360.09;4391327;32;34313;-89
2021/08/01 05:52:51;;;;;;;;;;;;;;;29.60;48.53;99357.72;4391498;32;36068;-90
2021/08/01 05:55:19;;;;;;;;;;;;;;;29.37;49.92;99341.59;4403224;32;35363;-89
2021/08/01 05:57:50;;;;;;;;;;;;;;;29.15;50.51;99354.81;4416439;32;33063;-89
2021/08/01 06:00:18;;;;;;;;;;;;;;;29.51;49.54;99337.31;4391117;32;35147;-89
2021/08/01 06:02:45;;;;;;;;;;;;;;;29.43;49.89;99335.53;4404639;32;34759;-89
2021/08/01 06:05:13;;;;;;;;;;;;;;;29.69;48.91;99339.66;4407918;32;34510;-89
2021/08/01 06:07:41;;;;;;;;;;;;;;;29.51;49.10;99337.31;4408424;32;33931;-89
2021/08/01 06:10:10;;;;;;;;;;;;;;;29.88;48.16;99341.88;4403767;32;33782;-89
2021/08/01 06:12:37;;;;;;;;;;;;;;;29.79;48.19;99340.25;4403498;32;36203;-89
2021/08/01 06:15:06;;;;;;;;;;;;;;;29.84;48.28;99340.53;4402846;32;35350;-89
2021/08/01 06:17:34;;;;;;;;;;;;;;;30.58;46.21;99339.78;4416461;32;32513;-89
2021/08/01 06:20:02;;;;;;;;;;;;;;;30.10;47.32;99333.94;4390817;32;35239;-89
2021/08/01 06:22:29;;;;;;;;;;;;;;;30.84;45.54;99335.75;4403249;32;33517;-89
2021/08/01 06:24:57;;;;;;;;;;;;;;;31.19;45.33;99322.47;4392392;32;34628;-90
2021/08/01 06:27:24;;;;;;;;;;;;;;;31.58;44.19;99310.44;4405678;32;33193;-90
2021/08/01 06:29:52;;;;;;;;;;;;;;;30.76;44.51;99298.22;4418478;32;35323;-89
2021/08/01 06:32:20;;;;;;;;;;;;;;;30.92;44.67;99303.34;4405426;32;35629;-89
2021/08/01 06:34:47;;;;;;;;;;;;;;;30.54;44.71;99310.78;4418221;32;35305;-89
2021/08/01 06:37:14;;;;;;;;;;;;;;;30.54;44.54;99295.50;4417574;32;35067;-89
2021/08/01 06:39:43;;;;;;;;;;;;;;;31.14;43.26;99296.16;4405037;32;35068;-89
2021/08/01 06:42:10;;;;;;;;;;;;;;;30.80;43.98;99316.47;4418174;32;34364;-89
2021/08/01 06:44:37;;;;;;;;;;;;;;;31.01;42.90;99305.91;4405565;32;34260;-89
2021/08/01 06:47:06;;;;;;;;;;;;;;;31.39;42.17;99293.09;4418314;32;32715;-90
2021/08/01 06:49:33;;;;;;;;;;;;;;;31.16;42.92;99287.91;4404692;32;35735;-89
2021/08/01 06:52:15;;;;;;;;;;;;;;;31.33;42.63;99303.81;4392747;32;34942;-89
2021/08/01 06:54:42;;;;;;;;;;;;;;;30.95;43.23;99323.66;4405288;32;33332;-89
2021/08/01 06:57:10;;;;;;;;;;;;;;;31.87;41.22;99329.28;4392723;32;34054;-89
2021/08/01 06:59:38;;;;;;;;;;;;;;;31.38;42.36;99320.16;4405306;32;34355;-90
2021/08/01 07:02:05;;;;;;;;;;;;;;;31.20;42.99;99324.16;4392341;32;34753;-90
2021/08/01 07:04:33;;;;;;;;;;;;;;;31.12;45.32;99303.59;4405129;32;35451;-90
2021/08/01 07:07:01;;;;;;;;;;;;;;;31.36;45.31;99300.72;4392140;32;33763;-90
2021/08/01 07:09:28;;;;;;;;;;;;;;;31.13;44.67;99331.34;4405172;32;34026;-89
2021/08/01 07:11:56;;;;;;;;;;;;;;;31.78;42.45;99329.44;4404937;32;35724;-89
2021/08/01 07:14:23;;;;;;;;;;;;;;;31.58;42.88;99336.53;4405221;32;35398;-90
2021/08/01 07:16:52;;;;;;;;;;;;;;;31.90;41.22;99354.00;4417081;32;34443;-89
2021/08/01 07:19:19;;;;;;;;;;;;;;;31.20;42.74;99371.75;4405176;32;34597;-90
2021/08/01 07:21:48;;;;;;;;;;;;;;;30.47;44.73;99416.38;4417257;32;34777;-89
2021/08/01 07:24:15;;;;;;;;;;;;;;;29.78;46.79;99460.25;4392301;32;34734;-90
2021/08/01 07:26:42;;;;;;;;;;;;;;;29.36;47.95;99458.84;4404935;32;33764;-89
2021/08/01 07:29:10;;;;;;;;;;;;;;;29.20;50.21;99469.59;4404770;32;33261;-90
2021/08/01 07:31:38;;;;;;;;;;;;;;;29.51;50.49;99445.50;4404556;32;35022;-90
2021/08/01 07:34:05;;;;;;;;;;;;;;;29.32;51.65;99402.00;4404888;32;35200;-89
2021/08/01 07:36:33;;;;;;;;;;;;;;;28.59;52.58;99323.56;4417176;32;34091;-90
2021/08/01 07:39:00;;;;;;;;;;;;;;;27.96;54.10;99244.94;4404854;32;34392;-89
2021/08/01 07:41:27;;;;;;;;;;;;;;;27.64;55.38;99250.22;4405558;32;34739;-89
2021/08/01 07:43:55;;;;;;;;;;;;;;;27.61;54.04;99271.13;4418341;32;34976;-89
2021/08/01 07:46:22;;;;;;;;;;;;;;;28.42;51.35;99309.41;4393363;32;33902;-89
2021/08/01 07:48:50;;;;;;;;;;;;;;;28.42;51.75;99340.75;4406069;32;34585;-89
2021/08/01 07:51:18;;;;;;;;;;;;;;;28.61;52.36;99329.63;4406918;32;34665;-89
2021/08/01 07:53:45;;;;;;;;;;;;;;;29.29;51.62;99337.97;4405579;32;34885;-90
2021/08/01 07:56:12;;;;;;;;;;;;;;;29.73;50.11;99367.81;4404768;32;33714;-89
2021/08/01 07:58:40;;;;;;;;;;;;;;;30.36;50.01;99356.84;4392519;32;34569;-89
2021/08/01 08:01:07;;;;;;;;;;;;;;;29.75;51.18;99373.84;4404582;32;34883;-89
2021/08/01 08:03:36;;;;;;;;;;;;;;;30.16;50.84;99378.88;4404875;32;34841;-89
2021/08/01 08:06:05;;;;;;;;;;;;;;;29.85;53.59;99368.22;4404993;32;33586;-89
2021/08/01 08:08:33;;;;;;;;;;;;;;;30.12;52.04;99362.28;4391397;32;34834;-90
2021/08/01 08:11:01;;;;;;;;;;;;;;;29.09;53.92;99342.97;4404506;32;35469;-89
2021/08/01 08:13:28;;;;;;;;;;;;;;;29.75;52.96;99345.16;4404834;32;34340;-89
2021/08/01 08:15:57;;;;;;;;;;;;;;;29.95;53.13;99350.03;4404592;32;33805;-89
2021/08/01 08:18:24;;;;;;;;;;;;;;;30.48;50.22;99328.50;4391851;32;34530;-89
2021/08/01 08:20:52;;;;;;;;;;;;;;;30.37;50.71;99323.53;4404907;32;34160;-89
2021/08/01 08:23:19;;;;;;;;;;;;;;;30.65;49.95;99307.63;4404968;32;34980;-90
2021/08/01 08:25:47;;;;;;;;;;;;;;;30.26;51.48;99324.84;4404453;32;34841;-89
2021/08/01 08:28:15;;;;;;;;;;;;;;;30.32;49.55;99319.56;4417165;32;33878;-90
2021/08/01 08:30:42;;;;;;;;;;;;;;;30.39;49.59;99316.97;4404167;32;34774;-89
2021/08/01 08:33:11;;;;;;;;;;;;;;;29.96;50.66;99292.63;4405201;32;34463;-89
2021/08/01 08:35:39;;;;;;;;;;;;;;;30.25;50.00;99256.00;4391841;32;34042;-89
2021/08/01 08:38:06;;;;;;;;;;;;;;;30.84;48.47;99230.06;4391920;32;35532;-89
2021/08/01 08:40:37;;;;;;;;;;;;;;;30.96;48.14;99232.03;4404788;32;34981;-90
2021/08/01 08:43:05;;;;;;;;;;;;;;;30.39;50.48;99230.16;4404450;32;34899;-89
2021/08/01 08:45:32;;;;;;;;;;;;;;;31.30;47.50;99238.56;4405063;32;33658;-89
2021/08/01 08:48:00;;;;;;;;;;;;;;;31.12;49.04;99228.25;4404396;32;33908;-89
2021/08/01 08:50:28;;;;;;;;;;;;;;;31.52;47.54;99211.59;4392001;32;34720;-90
2021/08/01 08:52:58;;;;;;;;;;;;;;;31.57;47.81;99192.19;4404275;32;34492;-90
2021/08/01 08:55:27;;;;;;;;;;;;;;;31.22;47.62;99192.97;4404428;32;34439;-89
2021/08/01 08:58:00;;;;;;;;;;;;;;;31.05;47.81;99187.03;4391514;32;34414;-89
2021/08/01 09:00:29;;;;;;;;;;;;;;;31.72;46.72;99184.00;4403436;32;35084;-90
2021/08/01 09:02:56;;;;;;;;;;;;;;;32.25;44.83;99183.44;4416653;32;35765;-89
2021/08/01 09:05:23;;;;;;;;;;;;;;;31.47;46.38;99190.66;4404899;32;33774;-89
2021/08/01 09:07:51;;;;;;;;;;;;;;;31.48;46.79;99183.41;4404118;32;33037;-89
2021/08/01 09:10:18;;;;;;;;;;;;;;;31.57;47.30;99182.22;4416878;32;34042;-89
2021/08/01 09:12:46;;;;;;;;;;;;;;;31.38;46.17;99189.16;4404387;32;35739;-90
2021/08/01 09:15:23;;;;;;;;;;;;;;;31.93;44.65;99193.84;4404881;32;34650;-89
2021/08/01 09:17:53;;;;;;;;;;;;;;;32.51;42.83;99206.09;4404328;32;35018;-89
2021/08/01 09:20:21;;;;;;;;;;;;;;;33.12;42.16;99188.97;4416739;32;34712;-89
2021/08/01 09:23:01;;;;;;;;;;;;;;;33.60;40.35;99187.91;4416699;32;35730;-90
2021/08/01 09:25:30;;;;;;;;;;;;;;;33.45;40.62;99185.44;4404562;32;33569;-89
2021/08/01 09:28:07;;;;;;;;;;;;;;;33.98;39.68;99187.19;4404328;32;33365;-90
2021/08/01 09:30:54;;;;;;;;;;;;;;;33.59;40.52;99178.97;4405943;32;34364;-90
2021/08/01 09:33:40;;;;;;;;;;;;;;;33.85;39.15;99182.66;4391468;32;34097;-89
2021/08/01 09:36:18;;;;;;;;;;;;;;;33.84;39.80;99189.12;4403773;32;34391;-90
2021/08/01 09:38:52;;;;;;;;;;;;;;;33.91;39.75;99197.22;4391375;32;35329;-89
2021/08/01 09:41:21;;;;;;;;;;;;;;;33.62;40.17;99186.66;4403962;32;34941;-90
2021/08/01 09:43:49;;;;;;;;;;;;;;;34.48;38.76;99181.16;4403997;32;34541;-90
2021/08/01 09:46:16;;;;;;;;;;;;;;;34.81;37.66;99173.84;4404253;32;33054;-89
2021/08/01 09:48:46;;;;;;;;;;;;;;;34.40;38.30;99184.94;4416526;32;33886;-90
2021/08/01 09:51:15;;;;;;;;;;;;;;;34.16;39.10;99191.91;4416349;32;35354;-90
2021/08/01 09:53:42;;;;;;;;;;;;;;;34.92;37.47;99192.94;4403849;32;34755;-90
2021/08/01 09:56:17;;;;;;;;;;;;;;;34.74;37.53;99209.06;4416670;32;34120;-89
2021/08/01 09:58:45;;;;;;;;;;;;;;;33.85;39.63;99203.44;4404388;32;35735;-90
2021/08/01 10:01:14;;;;;;;;;;;;;;;35.32;36.12;99196.38;4405843;32;35182;-90
2021/08/01 10:03:43;;;;;;;;;;;;;;;35.02;37.08;99192.47;4405366;32;34654;-90
2021/08/01 10:06:11;;;;;;;;;;;;;;;35.28;36.63;99187.84;4405199;32;34588;-89
2021/08/01 10:08:42;;;;;;;;;;;;;;;35.89;34.96;99196.25;4405095;32;33184;-90
2021/08/01 10:11:14;;;;;;;;;;;;;;;35.84;34.76;99180.66;4405524;32;33302;-90
2021/08/01 10:13:42;;;;;;;;;;;;;;;35.77;34.82;99172.56;4405485;32;35527;-90
2021/08/01 10:16:10;;;;;;;;;;;;;;;35.98;34.07;99178.63;4405095;32;31995;-90
2021/08/01 10:18:39;;;;;;;;;;;;;;;35.64;34.54;99167.31;4405362;32;34365;-90
2021/08/01 10:21:07;;;;;;;;;;;;;;;35.68;34.10;99157.66;4405640;32;35117;-90
2021/08/01 10:23:36;;;;;;;;;;;;;;;34.82;36.45;99161.97;4417439;32;34798;-90
2021/08/01 10:26:05;;;;;;;;;;;;;;;34.98;36.38;99141.69;4405607;32;33390;-90
2021/08/01 10:28:32;;;;;;;;;;;;;;;35.84;34.50;99131.87;4405623;32;35376;-90
2021/08/01 10:31:02;;;;;;;;;;;;;;;36.23;33.79;99128.84;4404544;32;33595;-90
2021/08/01 10:33:41;;;;;;;;;;;;;;;35.84;34.63;99117.50;4405602;32;34351;-90
2021/08/01 10:36:09;;;;;;;;;;;;;;;36.03;34.12;99119.09;4418411;32;33467;-90
2021/08/01 10:38:37;;;;;;;;;;;;;;;36.14;33.75;99122.94;4418328;32;33957;-90
2021/08/01 10:41:06;;;;;;;;;;;;;;;36.61;33.43;99114.12;4417627;32;34807;-90
2021/08/01 10:43:34;;;;;;;;;;;;;;;36.54;32.79;99100.66;4418025;32;35170;-90
2021/08/01 10:46:02;;;;;;;;;;;;;;;36.25;32.68;99103.16;4392869;32;33766;-90
2021/08/01 10:48:29;;;;;;;;;;;;;;;36.56;32.04;99090.41;4392848;32;35499;-90
2021/08/01 10:50:56;;;;;;;;;;;;;;;37.06;31.29;99085.63;4405547;32;34594;-90
2021/08/01 10:53:24;;;;;;;;;;;;;;;37.24;31.13;99079.22;4405387;32;34928;-90
2021/08/01 10:55:53;;;;;;;;;;;;;;;36.61;31.27;99085.09;4405021;32;35212;-90
2021/08/01 10:58:20;;;;;;;;;;;;;;;36.48;31.47;99082.59;4404947;32;34592;-90
2021/08/01 11:01:04;;;;;;;;;;;;;;;37.07;30.49;99081.81;4405652;32;34329;-90
2021/08/01 11:03:33;;;;;;;;;;;;;;;36.64;31.45;99067.53;4418433;32;34879;-90
2021/08/01 11:06:01;;;;;;;;;;;;;;;37.73;30.14;99047.09;4406070;32;33077;-91
2021/08/01 11:08:28;;;;;;;;;;;;;;;37.48;29.52;99060.19;4405721;32;34837;-90
2021/08/01 11:11:15;;;;;;;;;;;;;;;37.25;30.44;99057.25;4417188;32;34277;-91
2021/08/01 11:13:47;;;;;;;;;;;;;;;37.85;29.52;99060.66;4405050;32;34925;-90
2021/08/01 11:16:30;;;;;;;;;;;;;;;38.04;28.96;99074.03;4418086;32;32821;-90
2021/08/01 11:18:57;;;;;;;;;;;;;;;37.97;28.99;99084.25;4406493;32;34250;-91
2021/08/01 11:21:35;;;;;;;;;;;;;;;37.66;29.61;99086.37;4392604;32;33977;-91
2021/08/01 11:24:06;;;;;;;;;;;;;;;37.77;29.74;99077.31;4405405;32;33606;-91
2021/08/01 11:26:35;;;;;;;;;;;;;;;38.74;28.78;99069.28;4392392;32;34867;-91
2021/08/01 11:29:03;;;;;;;;;;;;;;;38.46;28.80;99073.72;4404856;32;34411;-90
2021/08/01 11:31:30;;;;;;;;;;;;;;;38.39;28.53;99071.16;4405055;32;34921;-90
2021/08/01 11:34:15;;;;;;;;;;;;;;;38.17;28.56;99073.72;4404844;32;33078;-90
2021/08/01 11:36:43;;;;;;;;;;;;;;;38.78;27.68;99078.59;4404872;32;34851;-91
2021/08/01 11:39:10;;;;;;;;;;;;;;;38.86;27.47;99080.88;4417555;32;34042;-91
2021/08/01 11:41:39;;;;;;;;;;;;;;;38.09;28.66;99082.28;4417244;32;34860;-91
2021/08/01 11:44:15;;;;;;;;;;;;;;;38.41;28.10;99068.19;4404508;32;35313;-90
2021/08/01 11:46:46;;;;;;;;;;;;;;;38.03;28.74;99069.69;4417142;32;34500;-90
2021/08/01 11:49:16;;;;;;;;;;;;;;;37.46;29.72;99074.00;4392393;32;34429;-90
2021/08/01 11:51:44;;;;;;;;;;;;;;;38.33;28.27;99065.88;4417666;32;33995;-91
2021/08/01 11:54:11;;;;;;;;;;;;;;;38.03;29.04;99077.84;4404742;32;35426;-91
2021/08/01 11:56:42;;;;;;;;;;;;;;;37.92;29.32;99069.50;4417823;32;33457;-91
2021/08/01 11:59:13;;;;;;;;;;;;;;;38.33;28.70;99060.44;4405459;32;33972;-90
2021/08/01 12:01:40;;;;;;;;;;;;;;;38.59;28.17;99056.22;4392329;32;35904;-90
2021/08/01 12:04:09;;;;;;;;;;;;;;;38.03;29.21;99053.38;4417578;32;34645;-90
2021/08/01 12:06:37;;;;;;;;;;;;;;;38.37;29.25;99054.28;4417215;32;34395;-90
2021/08/01 12:09:15;;;;;;;;;;;;;;;38.07;29.14;99074.38;4417357;32;33052;-90
2021/08/01 12:11:43;;;;;;;;;;;;;;;37.82;29.22;99069.31;4392219;32;35195;-90
2021/08/01 12:14:22;;;;;;;;;;;;;;;37.87;29.49;99068.59;4403754;32;35970;-91
2021/08/01 12:16:51;;;;;;;;;;;;;;;37.33;30.57;99071.56;4404396;32;33786;-91
2021/08/01 12:19:19;;;;;;;;;;;;;;;37.87;29.82;99069.41;4404692;32;34326;-90
2021/08/01 12:21:47;;;;;;;;;;;;;;;37.84;30.25;99091.66;4391662;32;35671;-90
2021/08/01 12:24:32;;;;;;;;;;;;;;;37.82;33.72;99106.53;4404807;32;35970;-91
2021/08/01 12:26:59;;;;;;;;;;;;;;;36.45;34.46;99107.50;4404778;32;33614;-90
2021/08/01 12:29:28;;;;;;;;;;;;;;;36.90;34.80;99120.56;4404570;32;35319;-90
2021/08/01 12:31:56;;;;;;;;;;;;;;;36.89;35.33;99124.31;4404844;32;34122;-90
2021/08/01 12:34:23;;;;;;;;;;;;;;;36.24;37.03;99112.34;4404672;32;34685;-90
2021/08/01 12:36:51;;;;;;;;;;;;;;;36.17;36.83;99113.53;4404956;32;33496;-91
2021/08/01 12:39:18;;;;;;;;;;;;;;;36.39;36.82;99111.97;4405305;32;34283;-90
2021/08/01 12:41:46;;;;;;;;;;;;;;;35.80;38.53;99108.16;4405998;32;34924;-90
2021/08/01 12:44:15;;;;;;;;;;;;;;;35.67;39.33;99107.25;4419604;32;34303;-91
2021/08/01 12:46:42;;;;;;;;;;;;;;;35.20;40.73;99107.75;4407228;32;33684;-91
2021/08/01 12:49:10;;;;;;;;;;;;;;;34.18;42.87;99103.31;4406657;32;34804;-90
2021/08/01 12:51:42;;;;;;;;;;;;;;;35.09;41.13;99084.16;4392512;32;34819;-91
2021/08/01 12:54:09;;;;;;;;;;;;;;;35.17;41.61;99075.72;4404454;32;35200;-91
2021/08/01 12:56:37;;;;;;;;;;;;;;;35.58;43.29;99071.53;4404952;32;34915;-90
2021/08/01 12:59:09;;;;;;;;;;;;;;;35.58;44.24;99074.25;4404620;32;35535;-91